sensor_id;sensor_type;location;lat;lon;timestamp;P1;durP1;ratioP1;P2;durP2;ratioP2
12194;SDS011;27023;42.680;23.132;2022-10-31T00:00:26;25.97;;;24.83;;
12194;SDS011;27023;42.680;23.132;2022-10-31T00:02:53;25.23;;;24.10;;
12194;SDS011;27023;42.680;23.132;2022-10-31T00:05:19;27.10;;;25.87;;
12194;SDS011;27023;42.680;23.132;2022-10-31T00:07:46;28.20;;;26.93;;
12194;SDS011;27023;42.680;23.132;2022-10-31T00:10:13;37.13;;;35.37;;
12194;SDS011;27023;42.680;23.132;2022-10-31T00:12:40;23.33;;;22.37;;
12194;SDS011;27023;42.680;23.132;2022-10-31T00:15:07;21.37;;;20.50;;
12194;SDS011;27023;42.680;23.132;2022-10-31T00:17:35;29.77;;;28.43;;
12194;SDS011;27023;42.680;23.132;2022-10-31T00:20:02;29.07;;;27.77;;
12194;SDS011;27023;42.680;23.132;2022-10-31T00:22:29;29.20;;;27.90;;
12194;SDS011;27023;42.680;23.132;2022-10-31T00:24:56;30.00;;;28.63;;
12194;SDS011;27023;42.680;23.132;2022-10-31T00:27:22;22.37;;;21.47;;
12194;SDS011;27023;42.680;23.132;2022-10-31T00:29:49;44.70;;;42.53;;
12194;SDS011;27023;42.680;23.132;2022-10-31T00:32:16;54.80;;;52.10;;
12194;SDS011;27023;42.680;23.132;2022-10-31T00:34:44;52.77;;;50.17;;
12194;SDS011;27023;42.680;23.132;2022-10-31T00:37:10;52.47;;;49.90;;
12194;SDS011;27023;42.680;23.132;2022-10-31T00:39:37;51.23;;;48.77;;
12194;SDS011;27023;42.680;23.132;2022-10-31T00:42:04;47.00;;;44.70;;
12194;SDS011;27023;42.680;23.132;2022-10-31T00:44:31;39.40;;;37.47;;
12194;SDS011;27023;42.680;23.132;2022-10-31T00:46:57;56.83;;;54.07;;
12194;SDS011;27023;42.680;23.132;2022-10-31T00:49:24;69.93;;;66.47;;
12194;SDS011;27023;42.680;23.132;2022-10-31T00:51:52;15.53;;;14.97;;
12194;SDS011;27023;42.680;23.132;2022-10-31T00:54:19;45.50;;;43.30;;
12194;SDS011;27023;42.680;23.132;2022-10-31T00:56:46;33.37;;;31.83;;
12194;SDS011;27023;42.680;23.132;2022-10-31T00:59:12;21.77;;;20.87;;
12194;SDS011;27023;42.680;23.132;2022-10-31T01:01:39;32.77;;;31.27;;
12194;SDS011;27023;42.680;23.132;2022-10-31T01:04:06;53.53;;;50.90;;
12194;SDS011;27023;42.680;23.132;2022-10-31T01:06:32;48.67;;;46.30;;
12194;SDS011;27023;42.680;23.132;2022-10-31T01:09:00;57.73;;;54.90;;
12194;SDS011;27023;42.680;23.132;2022-10-31T01:11:27;67.97;;;64.57;;
12194;SDS011;27023;42.680;23.132;2022-10-31T01:13:54;73.37;;;69.73;;
12194;SDS011;27023;42.680;23.132;2022-10-31T01:16:21;75.10;;;71.37;;
12194;SDS011;27023;42.680;23.132;2022-10-31T01:18:49;63.50;;;60.33;;
12194;SDS011;27023;42.680;23.132;2022-10-31T01:21:17;53.87;;;51.17;;
12194;SDS011;27023;42.680;23.132;2022-10-31T01:23:45;42.77;;;40.73;;
12194;SDS011;27023;42.680;23.132;2022-10-31T01:26:14;87.50;;;83.07;;
12194;SDS011;27023;42.680;23.132;2022-10-31T01:28:44;74.23;;;70.53;;
12194;SDS011;27023;42.680;23.132;2022-10-31T01:31:12;45.33;;;43.10;;
12194;SDS011;27023;42.680;23.132;2022-10-31T01:33:39;1.33;;;1.33;;
12194;SDS011;27023;42.680;23.132;2022-10-31T01:36:14;1.33;;;1.33;;
12194;SDS011;27023;42.680;23.132;2022-10-31T01:38:42;1.00;;;1.00;;
12194;SDS011;27023;42.680;23.132;2022-10-31T01:41:10;1.60;;;1.60;;
12194;SDS011;27023;42.680;23.132;2022-10-31T01:46:27;11.73;;;11.13;;
12194;SDS011;27023;42.680;23.132;2022-10-31T01:48:57;31.13;;;29.67;;
12194;SDS011;27023;42.680;23.132;2022-10-31T01:51:28;16.70;;;16.00;;
12194;SDS011;27023;42.680;23.132;2022-10-31T01:54:00;29.10;;;27.80;;
12194;SDS011;27023;42.680;23.132;2022-10-31T01:56:30;41.97;;;39.97;;
12194;SDS011;27023;42.680;23.132;2022-10-31T01:59:00;17.53;;;16.77;;
12194;SDS011;27023;42.680;23.132;2022-10-31T02:01:30;14.13;;;13.63;;
12194;SDS011;27023;42.680;23.132;2022-10-31T02:03:57;8.70;;;8.37;;
12194;SDS011;27023;42.680;23.132;2022-10-31T02:06:27;31.73;;;30.27;;
12194;SDS011;27023;42.680;23.132;2022-10-31T02:08:59;54.17;;;51.47;;
12194;SDS011;27023;42.680;23.132;2022-10-31T02:11:28;21.47;;;20.57;;
12194;SDS011;27023;42.680;23.132;2022-10-31T02:13:55;24.00;;;22.97;;
12194;SDS011;27023;42.680;23.132;2022-10-31T02:16:25;15.13;;;14.53;;
12194;SDS011;27023;42.680;23.132;2022-10-31T02:18:52;19.30;;;18.50;;
12194;SDS011;27023;42.680;23.132;2022-10-31T02:21:21;12.33;;;11.93;;
12194;SDS011;27023;42.680;23.132;2022-10-31T02:26:51;24.10;;;22.97;;
12194;SDS011;27023;42.680;23.132;2022-10-31T02:32:32;25.27;;;23.90;;
12194;SDS011;27023;42.680;23.132;2022-10-31T02:35:09;14.93;;;14.30;;
12194;SDS011;27023;42.680;23.132;2022-10-31T02:37:45;1.33;;;1.33;;
12194;SDS011;27023;42.680;23.132;2022-10-31T02:40:20;1.73;;;1.70;;
12194;SDS011;27023;42.680;23.132;2022-10-31T02:42:51;4.30;;;4.20;;
12194;SDS011;27023;42.680;23.132;2022-10-31T02:45:28;1.00;;;1.00;;
12194;SDS011;27023;42.680;23.132;2022-10-31T02:48:00;2.10;;;2.07;;
12194;SDS011;27023;42.680;23.132;2022-10-31T02:50:31;2.63;;;2.60;;
12194;SDS011;27023;42.680;23.132;2022-10-31T02:53:00;2.47;;;2.47;;
12194;SDS011;27023;42.680;23.132;2022-10-31T02:55:42;12.80;;;12.30;;
12194;SDS011;27023;42.680;23.132;2022-10-31T02:58:16;17.53;;;16.83;;
12194;SDS011;27023;42.680;23.132;2022-10-31T03:00:55;16.80;;;16.10;;
12194;SDS011;27023;42.680;23.132;2022-10-31T03:03:36;24.77;;;23.67;;
12194;SDS011;27023;42.680;23.132;2022-10-31T03:06:12;1.57;;;1.57;;
12194;SDS011;27023;42.680;23.132;2022-10-31T03:08:45;7.50;;;7.20;;
12194;SDS011;27023;42.680;23.132;2022-10-31T03:11:20;57.70;;;54.80;;
12194;SDS011;27023;42.680;23.132;2022-10-31T03:13:56;27.00;;;25.77;;
12194;SDS011;27023;42.680;23.132;2022-10-31T03:16:33;57.53;;;54.67;;
12194;SDS011;27023;42.680;23.132;2022-10-31T03:19:08;40.00;;;37.63;;
12194;SDS011;27023;42.680;23.132;2022-10-31T03:21:39;36.77;;;35.00;;
12194;SDS011;27023;42.680;23.132;2022-10-31T03:24:09;48.63;;;46.23;;
12194;SDS011;27023;42.680;23.132;2022-10-31T03:26:38;52.33;;;49.73;;
12194;SDS011;27023;42.680;23.132;2022-10-31T03:29:10;45.20;;;43.00;;
12194;SDS011;27023;42.680;23.132;2022-10-31T03:31:41;69.20;;;65.70;;
12194;SDS011;27023;42.680;23.132;2022-10-31T03:34:15;66.17;;;62.87;;
12194;SDS011;27023;42.680;23.132;2022-10-31T03:36:44;39.03;;;37.20;;
12194;SDS011;27023;42.680;23.132;2022-10-31T03:39:15;36.03;;;34.37;;
12194;SDS011;27023;42.680;23.132;2022-10-31T03:41:47;43.70;;;41.57;;
12194;SDS011;27023;42.680;23.132;2022-10-31T03:44:19;54.77;;;52.07;;
12194;SDS011;27023;42.680;23.132;2022-10-31T03:46:47;48.10;;;45.80;;
12194;SDS011;27023;42.680;23.132;2022-10-31T03:49:16;33.30;;;31.80;;
12194;SDS011;27023;42.680;23.132;2022-10-31T03:51:44;29.50;;;28.20;;
12194;SDS011;27023;42.680;23.132;2022-10-31T03:54:22;36.30;;;34.60;;
12194;SDS011;27023;42.680;23.132;2022-10-31T03:56:52;30.97;;;29.60;;
12194;SDS011;27023;42.680;23.132;2022-10-31T03:59:24;18.63;;;17.93;;
12194;SDS011;27023;42.680;23.132;2022-10-31T04:01:53;21.20;;;20.30;;
12194;SDS011;27023;42.680;23.132;2022-10-31T04:04:25;27.77;;;26.57;;
12194;SDS011;27023;42.680;23.132;2022-10-31T04:06:53;33.03;;;31.53;;
12194;SDS011;27023;42.680;23.132;2022-10-31T04:09:22;33.20;;;31.67;;
12194;SDS011;27023;42.680;23.132;2022-10-31T04:11:51;27.20;;;26.03;;
12194;SDS011;27023;42.680;23.132;2022-10-31T04:14:20;27.87;;;26.67;;
12194;SDS011;27023;42.680;23.132;2022-10-31T04:16:50;24.40;;;23.37;;
12194;SDS011;27023;42.680;23.132;2022-10-31T04:19:17;23.17;;;22.20;;
12194;SDS011;27023;42.680;23.132;2022-10-31T04:21:45;28.70;;;27.43;;
12194;SDS011;27023;42.680;23.132;2022-10-31T04:24:12;28.07;;;26.83;;
12194;SDS011;27023;42.680;23.132;2022-10-31T04:26:39;27.13;;;25.97;;
12194;SDS011;27023;42.680;23.132;2022-10-31T04:29:05;23.90;;;22.90;;
12194;SDS011;27023;42.680;23.132;2022-10-31T04:31:32;26.53;;;25.40;;
12194;SDS011;27023;42.680;23.132;2022-10-31T04:33:59;27.40;;;26.20;;
12194;SDS011;27023;42.680;23.132;2022-10-31T04:36:25;35.20;;;33.60;;
12194;SDS011;27023;42.680;23.132;2022-10-31T04:38:53;36.43;;;34.73;;
12194;SDS011;27023;42.680;23.132;2022-10-31T04:41:20;38.17;;;36.37;;
12194;SDS011;27023;42.680;23.132;2022-10-31T04:43:47;40.00;;;38.13;;
12194;SDS011;27023;42.680;23.132;2022-10-31T04:46:13;34.10;;;32.57;;
12194;SDS011;27023;42.680;23.132;2022-10-31T04:48:40;28.70;;;27.43;;
12194;SDS011;27023;42.680;23.132;2022-10-31T04:51:07;26.60;;;25.47;;
12194;SDS011;27023;42.680;23.132;2022-10-31T04:53:33;24.30;;;23.27;;
12194;SDS011;27023;42.680;23.132;2022-10-31T04:56:01;22.53;;;21.60;;
12194;SDS011;27023;42.680;23.132;2022-10-31T04:58:28;30.00;;;28.67;;
12194;SDS011;27023;42.680;23.132;2022-10-31T05:00:55;44.37;;;42.20;;
12194;SDS011;27023;42.680;23.132;2022-10-31T05:03:22;40.67;;;38.73;;
12194;SDS011;27023;42.680;23.132;2022-10-31T05:05:49;41.67;;;39.70;;
12194;SDS011;27023;42.680;23.132;2022-10-31T05:08:16;25.73;;;24.60;;
12194;SDS011;27023;42.680;23.132;2022-10-31T05:10:42;19.37;;;18.57;;
12194;SDS011;27023;42.680;23.132;2022-10-31T05:13:10;33.93;;;32.33;;
12194;SDS011;27023;42.680;23.132;2022-10-31T05:15:37;43.33;;;41.27;;
12194;SDS011;27023;42.680;23.132;2022-10-31T05:18:07;41.23;;;39.23;;
12194;SDS011;27023;42.680;23.132;2022-10-31T05:20:34;32.53;;;31.03;;
12194;SDS011;27023;42.680;23.132;2022-10-31T05:23:01;27.37;;;26.10;;
12194;SDS011;27023;42.680;23.132;2022-10-31T05:25:28;34.70;;;33.10;;
12194;SDS011;27023;42.680;23.132;2022-10-31T05:27:55;33.13;;;31.60;;
12194;SDS011;27023;42.680;23.132;2022-10-31T05:30:25;31.70;;;30.23;;
12194;SDS011;27023;42.680;23.132;2022-10-31T05:32:52;35.20;;;33.60;;
12194;SDS011;27023;42.680;23.132;2022-10-31T05:35:20;41.80;;;39.83;;
12194;SDS011;27023;42.680;23.132;2022-10-31T05:37:48;25.13;;;24.03;;
12194;SDS011;27023;42.680;23.132;2022-10-31T05:40:16;21.77;;;20.87;;
12194;SDS011;27023;42.680;23.132;2022-10-31T05:42:44;22.17;;;21.27;;
12194;SDS011;27023;42.680;23.132;2022-10-31T05:45:12;21.43;;;20.53;;
12194;SDS011;27023;42.680;23.132;2022-10-31T05:47:41;25.10;;;24.03;;
12194;SDS011;27023;42.680;23.132;2022-10-31T05:50:09;24.07;;;23.03;;
12194;SDS011;27023;42.680;23.132;2022-10-31T05:52:36;23.73;;;22.73;;
12194;SDS011;27023;42.680;23.132;2022-10-31T05:55:03;22.40;;;21.50;;
12194;SDS011;27023;42.680;23.132;2022-10-31T05:57:31;26.43;;;25.30;;
12194;SDS011;27023;42.680;23.132;2022-10-31T05:59:58;31.73;;;30.30;;
12194;SDS011;27023;42.680;23.132;2022-10-31T06:02:25;33.17;;;31.63;;
12194;SDS011;27023;42.680;23.132;2022-10-31T06:04:58;25.30;;;24.20;;
12194;SDS011;27023;42.680;23.132;2022-10-31T06:07:24;26.80;;;25.63;;
12194;SDS011;27023;42.680;23.132;2022-10-31T06:09:51;23.20;;;22.27;;
12194;SDS011;27023;42.680;23.132;2022-10-31T06:12:17;23.57;;;22.60;;
12194;SDS011;27023;42.680;23.132;2022-10-31T06:14:44;21.13;;;20.30;;
12194;SDS011;27023;42.680;23.132;2022-10-31T06:17:11;27.27;;;26.07;;
12194;SDS011;27023;42.680;23.132;2022-10-31T06:19:37;18.47;;;17.77;;
12194;SDS011;27023;42.680;23.132;2022-10-31T06:22:05;14.90;;;14.40;;
12194;SDS011;27023;42.680;23.132;2022-10-31T06:24:32;17.83;;;17.13;;
12194;SDS011;27023;42.680;23.132;2022-10-31T06:26:59;14.50;;;14.00;;
12194;SDS011;27023;42.680;23.132;2022-10-31T06:29:26;14.37;;;13.87;;
12194;SDS011;27023;42.680;23.132;2022-10-31T06:31:53;11.53;;;11.23;;
12194;SDS011;27023;42.680;23.132;2022-10-31T06:34:19;10.33;;;10.03;;
12194;SDS011;27023;42.680;23.132;2022-10-31T06:36:46;10.83;;;10.53;;
12194;SDS011;27023;42.680;23.132;2022-10-31T06:39:14;10.80;;;10.50;;
12194;SDS011;27023;42.680;23.132;2022-10-31T06:41:41;10.40;;;10.10;;
12194;SDS011;27023;42.680;23.132;2022-10-31T06:44:08;10.90;;;10.60;;
12194;SDS011;27023;42.680;23.132;2022-10-31T06:46:34;12.77;;;12.37;;
12194;SDS011;27023;42.680;23.132;2022-10-31T06:49:01;17.87;;;17.17;;
12194;SDS011;27023;42.680;23.132;2022-10-31T06:51:28;12.00;;;11.60;;
12194;SDS011;27023;42.680;23.132;2022-10-31T06:53:54;11.13;;;10.73;;
12194;SDS011;27023;42.680;23.132;2022-10-31T06:56:22;10.40;;;10.10;;
12194;SDS011;27023;42.680;23.132;2022-10-31T06:58:49;8.30;;;8.10;;
12194;SDS011;27023;42.680;23.132;2022-10-31T07:01:16;7.33;;;7.13;;
12194;SDS011;27023;42.680;23.132;2022-10-31T07:03:43;4.80;;;4.70;;
12194;SDS011;27023;42.680;23.132;2022-10-31T07:06:09;4.37;;;4.27;;
12194;SDS011;27023;42.680;23.132;2022-10-31T07:08:36;1.50;;;1.50;;
12194;SDS011;27023;42.680;23.132;2022-10-31T07:11:03;2.30;;;2.20;;
12194;SDS011;27023;42.680;23.132;2022-10-31T07:13:31;1.33;;;1.33;;
12194;SDS011;27023;42.680;23.132;2022-10-31T07:15:59;1.33;;;1.33;;
12194;SDS011;27023;42.680;23.132;2022-10-31T07:18:28;1.67;;;1.67;;
12194;SDS011;27023;42.680;23.132;2022-10-31T07:20:55;1.83;;;1.83;;
12194;SDS011;27023;42.680;23.132;2022-10-31T07:23:22;2.13;;;2.03;;
12194;SDS011;27023;42.680;23.132;2022-10-31T07:25:48;1.60;;;1.60;;
12194;SDS011;27023;42.680;23.132;2022-10-31T07:28:21;1.93;;;1.90;;
12194;SDS011;27023;42.680;23.132;2022-10-31T07:30:50;1.87;;;1.83;;
12194;SDS011;27023;42.680;23.132;2022-10-31T07:33:17;1.77;;;1.77;;
12194;SDS011;27023;42.680;23.132;2022-10-31T07:35:44;3.00;;;2.93;;
12194;SDS011;27023;42.680;23.132;2022-10-31T07:38:11;2.20;;;2.20;;
12194;SDS011;27023;42.680;23.132;2022-10-31T07:40:41;1.60;;;1.60;;
12194;SDS011;27023;42.680;23.132;2022-10-31T07:43:09;2.10;;;2.10;;
12194;SDS011;27023;42.680;23.132;2022-10-31T07:45:37;2.47;;;2.47;;
12194;SDS011;27023;42.680;23.132;2022-10-31T07:48:05;3.07;;;2.87;;
12194;SDS011;27023;42.680;23.132;2022-10-31T07:50:32;2.30;;;2.30;;
12194;SDS011;27023;42.680;23.132;2022-10-31T07:53:00;1.83;;;1.83;;
12194;SDS011;27023;42.680;23.132;2022-10-31T07:55:28;1.70;;;1.70;;
12194;SDS011;27023;42.680;23.132;2022-10-31T07:58:01;2.43;;;2.43;;
12194;SDS011;27023;42.680;23.132;2022-10-31T08:00:36;1.77;;;1.77;;
12194;SDS011;27023;42.680;23.132;2022-10-31T08:03:04;2.23;;;2.13;;
12194;SDS011;27023;42.680;23.132;2022-10-31T08:05:33;1.97;;;1.87;;
12194;SDS011;27023;42.680;23.132;2022-10-31T08:08:01;2.37;;;2.27;;
12194;SDS011;27023;42.680;23.132;2022-10-31T08:10:28;2.17;;;2.17;;
12194;SDS011;27023;42.680;23.132;2022-10-31T08:12:56;2.20;;;2.17;;
12194;SDS011;27023;42.680;23.132;2022-10-31T08:15:24;3.17;;;3.07;;
12194;SDS011;27023;42.680;23.132;2022-10-31T08:17:52;1.97;;;1.97;;
12194;SDS011;27023;42.680;23.132;2022-10-31T08:20:20;2.10;;;2.10;;
12194;SDS011;27023;42.680;23.132;2022-10-31T08:23:01;1.70;;;1.70;;
12194;SDS011;27023;42.680;23.132;2022-10-31T08:25:46;2.70;;;2.60;;
12194;SDS011;27023;42.680;23.132;2022-10-31T08:28:13;2.13;;;2.13;;
12194;SDS011;27023;42.680;23.132;2022-10-31T08:30:40;2.60;;;2.50;;
12194;SDS011;27023;42.680;23.132;2022-10-31T08:33:09;2.20;;;2.20;;
12194;SDS011;27023;42.680;23.132;2022-10-31T08:35:38;2.13;;;1.90;;
12194;SDS011;27023;42.680;23.132;2022-10-31T08:38:05;1.37;;;1.37;;
12194;SDS011;27023;42.680;23.132;2022-10-31T08:40:37;1.30;;;1.30;;
12194;SDS011;27023;42.680;23.132;2022-10-31T08:43:04;2.40;;;1.90;;
12194;SDS011;27023;42.680;23.132;2022-10-31T08:45:32;1.80;;;1.77;;
12194;SDS011;27023;42.680;23.132;2022-10-31T08:48:00;1.83;;;1.70;;
12194;SDS011;27023;42.680;23.132;2022-10-31T08:50:28;2.20;;;2.10;;
12194;SDS011;27023;42.680;23.132;2022-10-31T08:53:02;2.73;;;2.70;;
12194;SDS011;27023;42.680;23.132;2022-10-31T08:55:33;2.27;;;2.23;;
12194;SDS011;27023;42.680;23.132;2022-10-31T08:58:04;1.87;;;1.87;;
12194;SDS011;27023;42.680;23.132;2022-10-31T09:00:58;2.83;;;2.70;;
12194;SDS011;27023;42.680;23.132;2022-10-31T09:03:27;2.20;;;2.10;;
12194;SDS011;27023;42.680;23.132;2022-10-31T09:06:17;2.37;;;2.27;;
12194;SDS011;27023;42.680;23.132;2022-10-31T09:08:53;6.70;;;2.73;;
12194;SDS011;27023;42.680;23.132;2022-10-31T09:11:20;1.70;;;1.70;;
12194;SDS011;27023;42.680;23.132;2022-10-31T09:13:58;3.45;;;3.25;;
12194;SDS011;27023;42.680;23.132;2022-10-31T09:16:45;1.70;;;1.70;;
12194;SDS011;27023;42.680;23.132;2022-10-31T09:19:11;1.88;;;1.83;;
12194;SDS011;27023;42.680;23.132;2022-10-31T09:21:39;1.77;;;1.77;;
12194;SDS011;27023;42.680;23.132;2022-10-31T09:24:10;4.13;;;2.80;;
12194;SDS011;27023;42.680;23.132;2022-10-31T09:26:40;1.37;;;1.37;;
12194;SDS011;27023;42.680;23.132;2022-10-31T09:29:07;2.10;;;1.47;;
12194;SDS011;27023;42.680;23.132;2022-10-31T09:31:37;1.20;;;1.20;;
12194;SDS011;27023;42.680;23.132;2022-10-31T09:34:21;1.83;;;1.67;;
12194;SDS011;27023;42.680;23.132;2022-10-31T09:37:22;2.10;;;1.57;;
12194;SDS011;27023;42.680;23.132;2022-10-31T09:39:51;2.83;;;2.20;;
12194;SDS011;27023;42.680;23.132;2022-10-31T09:42:57;1.30;;;1.30;;
12194;SDS011;27023;42.680;23.132;2022-10-31T09:45:46;2.53;;;2.05;;
12194;SDS011;27023;42.680;23.132;2022-10-31T09:48:40;1.30;;;1.30;;
12194;SDS011;27023;42.680;23.132;2022-10-31T09:51:22;1.53;;;1.53;;
12194;SDS011;27023;42.680;23.132;2022-10-31T09:53:56;2.08;;;2.08;;
12194;SDS011;27023;42.680;23.132;2022-10-31T09:56:31;1.65;;;1.63;;
12194;SDS011;27023;42.680;23.132;2022-10-31T09:59:00;1.88;;;1.73;;
12194;SDS011;27023;42.680;23.132;2022-10-31T10:01:37;1.58;;;1.52;;
12194;SDS011;27023;42.680;23.132;2022-10-31T10:04:23;1.20;;;1.20;;
12194;SDS011;27023;42.680;23.132;2022-10-31T10:07:02;1.42;;;1.42;;
12194;SDS011;27023;42.680;23.132;2022-10-31T10:09:34;1.38;;;1.38;;
12194;SDS011;27023;42.680;23.132;2022-10-31T10:12:07;1.55;;;1.55;;
12194;SDS011;27023;42.680;23.132;2022-10-31T10:14:46;1.48;;;1.48;;
12194;SDS011;27023;42.680;23.132;2022-10-31T10:17:24;1.80;;;1.80;;
12194;SDS011;27023;42.680;23.132;2022-10-31T10:20:12;2.55;;;2.45;;
12194;SDS011;27023;42.680;23.132;2022-10-31T10:22:52;1.63;;;1.63;;
12194;SDS011;27023;42.680;23.132;2022-10-31T10:25:32;1.38;;;1.38;;
12194;SDS011;27023;42.680;23.132;2022-10-31T10:28:08;1.98;;;1.88;;
12194;SDS011;27023;42.680;23.132;2022-10-31T10:30:44;1.45;;;1.42;;
12194;SDS011;27023;42.680;23.132;2022-10-31T10:33:15;1.90;;;1.90;;
12194;SDS011;27023;42.680;23.132;2022-10-31T10:35:47;1.60;;;1.60;;
12194;SDS011;27023;42.680;23.132;2022-10-31T10:38:21;1.67;;;1.67;;
12194;SDS011;27023;42.680;23.132;2022-10-31T10:40:53;1.33;;;1.33;;
12194;SDS011;27023;42.680;23.132;2022-10-31T10:43:23;1.45;;;1.45;;
12194;SDS011;27023;42.680;23.132;2022-10-31T10:45:58;2.33;;;2.13;;
12194;SDS011;27023;42.680;23.132;2022-10-31T10:49:02;2.42;;;2.05;;
12194;SDS011;27023;42.680;23.132;2022-10-31T10:51:37;1.70;;;1.70;;
12194;SDS011;27023;42.680;23.132;2022-10-31T10:54:13;3.35;;;1.77;;
12194;SDS011;27023;42.680;23.132;2022-10-31T10:56:53;1.67;;;1.67;;
12194;SDS011;27023;42.680;23.132;2022-10-31T10:59:28;2.38;;;2.28;;
12194;SDS011;27023;42.680;23.132;2022-10-31T11:01:55;2.22;;;2.17;;
12194;SDS011;27023;42.680;23.132;2022-10-31T11:04:32;2.85;;;2.75;;
12194;SDS011;27023;42.680;23.132;2022-10-31T11:07:01;2.17;;;2.17;;
12194;SDS011;27023;42.680;23.132;2022-10-31T11:09:31;2.30;;;2.20;;
12194;SDS011;27023;42.680;23.132;2022-10-31T11:11:58;1.83;;;1.83;;
12194;SDS011;27023;42.680;23.132;2022-10-31T11:14:27;3.00;;;2.90;;
12194;SDS011;27023;42.680;23.132;2022-10-31T11:16:55;2.10;;;2.10;;
12194;SDS011;27023;42.680;23.132;2022-10-31T11:19:36;3.53;;;3.08;;
12194;SDS011;27023;42.680;23.132;2022-10-31T11:22:06;2.05;;;2.05;;
12194;SDS011;27023;42.680;23.132;2022-10-31T11:24:38;8.60;;;6.20;;
12194;SDS011;27023;42.680;23.132;2022-10-31T11:27:12;2.35;;;2.25;;
12194;SDS011;27023;42.680;23.132;2022-10-31T11:29:43;2.20;;;2.10;;
12194;SDS011;27023;42.680;23.132;2022-10-31T11:32:15;7.05;;;2.63;;
12194;SDS011;27023;42.680;23.132;2022-10-31T11:34:47;2.22;;;2.13;;
12194;SDS011;27023;42.680;23.132;2022-10-31T11:37:18;1.77;;;1.77;;
12194;SDS011;27023;42.680;23.132;2022-10-31T11:39:49;2.00;;;1.90;;
12194;SDS011;27023;42.680;23.132;2022-10-31T11:42:19;1.75;;;1.75;;
12194;SDS011;27023;42.680;23.132;2022-10-31T11:44:50;2.05;;;1.95;;
12194;SDS011;27023;42.680;23.132;2022-10-31T11:47:21;1.38;;;1.38;;
12194;SDS011;27023;42.680;23.132;2022-10-31T11:49:52;1.45;;;1.45;;
12194;SDS011;27023;42.680;23.132;2022-10-31T11:52:20;1.88;;;1.80;;
12194;SDS011;27023;42.680;23.132;2022-10-31T11:54:51;1.83;;;1.77;;
12194;SDS011;27023;42.680;23.132;2022-10-31T11:57:21;1.88;;;1.88;;
12194;SDS011;27023;42.680;23.132;2022-10-31T11:59:52;1.77;;;1.77;;
12194;SDS011;27023;42.680;23.132;2022-10-31T12:02:21;1.35;;;1.35;;
12194;SDS011;27023;42.680;23.132;2022-10-31T12:04:49;1.55;;;1.55;;
12194;SDS011;27023;42.680;23.132;2022-10-31T12:07:22;1.63;;;1.63;;
12194;SDS011;27023;42.680;23.132;2022-10-31T12:09:49;1.40;;;1.40;;
12194;SDS011;27023;42.680;23.132;2022-10-31T12:15:07;1.85;;;1.75;;
12194;SDS011;27023;42.680;23.132;2022-10-31T12:20:57;1.60;;;1.60;;
12194;SDS011;27023;42.680;23.132;2022-10-31T12:23:36;1.20;;;1.20;;
12194;SDS011;27023;42.680;23.132;2022-10-31T12:26:12;1.38;;;1.38;;
12194;SDS011;27023;42.680;23.132;2022-10-31T12:28:51;1.45;;;1.42;;
12194;SDS011;27023;42.680;23.132;2022-10-31T12:31:33;1.67;;;1.67;;
12194;SDS011;27023;42.680;23.132;2022-10-31T12:37:05;1.40;;;1.40;;
12194;SDS011;27023;42.680;23.132;2022-10-31T12:39:42;1.98;;;1.98;;
12194;SDS011;27023;42.680;23.132;2022-10-31T12:42:21;1.52;;;1.52;;
12194;SDS011;27023;42.680;23.132;2022-10-31T12:45:09;1.00;;;1.00;;
12194;SDS011;27023;42.680;23.132;2022-10-31T12:47:59;1.17;;;1.17;;
12194;SDS011;27023;42.680;23.132;2022-10-31T12:50:50;1.77;;;1.77;;
12194;SDS011;27023;42.680;23.132;2022-10-31T12:53:27;1.30;;;1.30;;
12194;SDS011;27023;42.680;23.132;2022-10-31T12:56:12;1.45;;;1.45;;
12194;SDS011;27023;42.680;23.132;2022-10-31T12:58:51;1.38;;;1.38;;
12194;SDS011;27023;42.680;23.132;2022-10-31T13:01:22;1.75;;;1.73;;
12194;SDS011;27023;42.680;23.132;2022-10-31T13:03:55;1.30;;;1.30;;
12194;SDS011;27023;42.680;23.132;2022-10-31T13:06:28;1.35;;;1.35;;
12194;SDS011;27023;42.680;23.132;2022-10-31T13:08:59;1.42;;;1.42;;
12194;SDS011;27023;42.680;23.132;2022-10-31T13:11:28;1.38;;;1.38;;
12194;SDS011;27023;42.680;23.132;2022-10-31T13:14:00;1.60;;;1.60;;
12194;SDS011;27023;42.680;23.132;2022-10-31T13:16:33;3.25;;;3.05;;
12194;SDS011;27023;42.680;23.132;2022-10-31T13:19:07;1.52;;;1.52;;
12194;SDS011;27023;42.680;23.132;2022-10-31T13:21:38;1.35;;;1.35;;
12194;SDS011;27023;42.680;23.132;2022-10-31T13:24:11;1.88;;;1.85;;
12194;SDS011;27023;42.680;23.132;2022-10-31T13:26:43;1.58;;;1.58;;
12194;SDS011;27023;42.680;23.132;2022-10-31T13:29:16;1.30;;;1.30;;
12194;SDS011;27023;42.680;23.132;2022-10-31T13:31:45;1.08;;;1.08;;
12194;SDS011;27023;42.680;23.132;2022-10-31T13:34:18;2.35;;;2.20;;
12194;SDS011;27023;42.680;23.132;2022-10-31T13:36:52;1.30;;;1.30;;
12194;SDS011;27023;42.680;23.132;2022-10-31T13:39:26;1.40;;;1.40;;
12194;SDS011;27023;42.680;23.132;2022-10-31T13:42:02;1.08;;;1.08;;
12194;SDS011;27023;42.680;23.132;2022-10-31T13:44:35;3.08;;;2.95;;
12194;SDS011;27023;42.680;23.132;2022-10-31T13:47:03;1.25;;;1.25;;
12194;SDS011;27023;42.680;23.132;2022-10-31T13:49:47;1.42;;;1.42;;
12194;SDS011;27023;42.680;23.132;2022-10-31T13:52:15;1.90;;;1.88;;
12194;SDS011;27023;42.680;23.132;2022-10-31T13:54:48;1.73;;;1.73;;
12194;SDS011;27023;42.680;23.132;2022-10-31T13:57:22;1.98;;;1.98;;
12194;SDS011;27023;42.680;23.132;2022-10-31T13:59:56;1.20;;;1.20;;
12194;SDS011;27023;42.680;23.132;2022-10-31T14:02:26;1.25;;;1.25;;
12194;SDS011;27023;42.680;23.132;2022-10-31T14:04:57;1.33;;;1.33;;
12194;SDS011;27023;42.680;23.132;2022-10-31T14:07:27;1.15;;;1.15;;
12194;SDS011;27023;42.680;23.132;2022-10-31T14:09:57;1.48;;;1.48;;
12194;SDS011;27023;42.680;23.132;2022-10-31T14:12:30;1.85;;;1.85;;
12194;SDS011;27023;42.680;23.132;2022-10-31T14:15:00;1.30;;;1.30;;
12194;SDS011;27023;42.680;23.132;2022-10-31T14:17:33;1.42;;;1.42;;
12194;SDS011;27023;42.680;23.132;2022-10-31T14:28:57;1.75;;;1.70;;
12194;SDS011;27023;42.680;23.132;2022-10-31T14:31:32;1.70;;;1.70;;
12194;SDS011;27023;42.680;23.132;2022-10-31T14:34:04;1.10;;;1.10;;
12194;SDS011;27023;42.680;23.132;2022-10-31T14:36:48;1.23;;;1.23;;
12194;SDS011;27023;42.680;23.132;2022-10-31T14:39:24;2.47;;;1.98;;
12194;SDS011;27023;42.680;23.132;2022-10-31T14:42:00;3.10;;;2.90;;
12194;SDS011;27023;42.680;23.132;2022-10-31T14:47:40;1.25;;;1.25;;
12194;SDS011;27023;42.680;23.132;2022-10-31T14:50:18;1.25;;;1.25;;
12194;SDS011;27023;42.680;23.132;2022-10-31T14:52:51;0.90;;;0.90;;
12194;SDS011;27023;42.680;23.132;2022-10-31T14:55:21;1.50;;;1.50;;
12194;SDS011;27023;42.680;23.132;2022-10-31T14:57:51;1.58;;;1.58;;
12194;SDS011;27023;42.680;23.132;2022-10-31T15:00:21;1.50;;;1.50;;
12194;SDS011;27023;42.680;23.132;2022-10-31T15:02:51;0.70;;;0.70;;
12194;SDS011;27023;42.680;23.132;2022-10-31T15:05:24;1.17;;;1.17;;
12194;SDS011;27023;42.680;23.132;2022-10-31T15:07:55;1.43;;;1.33;;
12194;SDS011;27023;42.680;23.132;2022-10-31T15:10:23;1.58;;;1.58;;
12194;SDS011;27023;42.680;23.132;2022-10-31T15:12:52;1.10;;;1.10;;
12194;SDS011;27023;42.680;23.132;2022-10-31T15:15:19;1.47;;;1.47;;